Infanta, Philippines
Current Conditions -  °F | °C
As of 8:00 AM on Tuesday 23 Dec 2014 (Local Time) from RPLL Reporting Station
Scattered Clouds Scattered Clouds  
Wind Chill: 79°   Ceiling: Unl
Heat Index: 81°   Visibility: 6mi
Dew Point: 66°   Wind: 3mph
Humidity: 65%   Direction: NA
Pressure: 29.88"   Gusts: NA
Location:  14.74°N, 121.65°E
Report Text: RPLL 230000Z METAR RPLB 230000Z VRB03KT 9999 FEW020 SCT300 26/19 Q1012 NOSIG RMK A2988
Loading
Personal Weather Stations






























Interactive Weather Map New forecast layout! Learn more

10-Day Weather Forecast

Advertisements
Track Severe Weather on mobile